createdAt,value
2024-01-16T00:00:18.549Z,0.52
2024-01-16T00:01:18.556Z,0.51
2024-01-16T00:02:18.591Z,0.51
2024-01-16T00:03:18.526Z,0.51
2024-01-16T00:04:18.592Z,0.51
2024-01-16T00:05:18.561Z,0.50
2024-01-16T00:06:18.547Z,0.50
2024-01-16T00:07:18.591Z,0.50
2024-01-16T00:08:18.575Z,0.50
2024-01-16T00:09:18.531Z,0.50
2024-01-16T00:10:18.556Z,0.51
2024-01-16T00:11:18.615Z,0.51
2024-01-16T00:12:18.554Z,0.50
2024-01-16T00:13:18.530Z,0.51
2024-01-16T00:14:18.584Z,0.51
2024-01-16T00:15:18.543Z,0.51
2024-01-16T00:16:18.551Z,0.51
2024-01-16T00:17:18.571Z,0.50
2024-01-16T00:18:18.713Z,0.50
2024-01-16T00:19:18.644Z,0.50
2024-01-16T00:20:18.599Z,0.51
2024-01-16T00:21:18.572Z,0.52
2024-01-16T00:22:18.579Z,0.51
2024-01-16T00:23:18.664Z,0.51
2024-01-16T00:24:18.704Z,0.52
2024-01-16T00:25:18.742Z,0.51
2024-01-16T00:26:18.828Z,0.52
2024-01-16T00:27:18.866Z,0.51
2024-01-16T00:28:18.922Z,0.51
2024-01-16T00:29:19.088Z,0.50
2024-01-16T00:30:19.057Z,0.50
2024-01-16T00:31:19.093Z,0.51
2024-01-16T00:32:19.193Z,0.50
2024-01-16T00:33:19.333Z,0.51
2024-01-16T00:34:19.300Z,0.51
2024-01-16T00:35:19.352Z,0.51
2024-01-16T00:36:19.388Z,0.51
2024-01-16T00:37:19.448Z,0.52
2024-01-16T00:38:19.570Z,0.50
2024-01-16T00:39:19.587Z,0.52
2024-01-16T00:40:19.668Z,0.51
2024-01-16T00:41:19.760Z,0.50
2024-01-16T00:42:19.786Z,0.51
2024-01-16T00:43:19.861Z,0.52
2024-01-16T00:44:19.988Z,0.51
2024-01-16T00:45:19.974Z,0.50
2024-01-16T00:46:20.083Z,0.50
2024-01-16T00:47:20.144Z,0.50
2024-01-16T00:48:20.278Z,0.51
2024-01-16T00:49:22.001Z,0.51
2024-01-16T00:50:20.361Z,0.51
2024-01-16T00:51:20.390Z,0.50
2024-01-16T00:52:20.439Z,0.50
2024-01-16T00:53:20.519Z,0.51
2024-01-16T00:54:20.585Z,0.52
2024-01-16T00:55:20.638Z,0.50
2024-01-16T00:56:20.802Z,0.50
2024-01-16T00:57:20.766Z,0.51
2024-01-16T00:58:20.841Z,0.50
2024-01-16T00:59:20.940Z,0.52
2024-01-16T01:00:20.966Z,0.50
2024-01-16T01:01:21.062Z,0.51
2024-01-16T01:02:21.102Z,0.52
2024-01-16T01:03:21.187Z,0.51
2024-01-16T01:04:21.214Z,0.51
2024-01-16T01:05:21.365Z,0.50
2024-01-16T01:06:21.444Z,0.51
2024-01-16T01:07:21.402Z,0.51
2024-01-16T01:08:21.513Z,0.50
2024-01-16T01:09:21.553Z,0.50
2024-01-16T01:10:21.693Z,0.52
2024-01-16T01:11:21.723Z,0.51
2024-01-16T01:12:21.772Z,0.52
2024-01-16T01:13:21.842Z,0.50
2024-01-16T01:14:22.012Z,0.51
2024-01-16T01:15:22.002Z,0.51
2024-01-16T01:16:22.180Z,0.52
2024-01-16T01:17:22.184Z,0.51
2024-01-16T01:18:22.280Z,0.51
2024-01-16T01:19:22.334Z,0.51
2024-01-16T01:20:22.441Z,0.52
2024-01-16T01:21:22.417Z,0.50
2024-01-16T01:22:22.467Z,0.50
2024-01-16T01:23:22.555Z,0.51
2024-01-16T01:24:22.625Z,0.51
2024-01-16T01:25:22.669Z,0.51
2024-01-16T01:26:22.807Z,0.51
2024-01-16T01:27:22.830Z,0.50
2024-01-16T01:28:22.885Z,0.51
2024-01-16T01:29:22.978Z,0.50
2024-01-16T01:30:23.074Z,0.52
2024-01-16T01:31:23.089Z,0.52
2024-01-16T01:32:23.382Z,0.51
2024-01-16T01:33:23.497Z,0.52
2024-01-16T01:34:23.387Z,0.51
2024-01-16T01:35:23.439Z,0.52
2024-01-16T01:36:23.446Z,0.51
2024-01-16T01:37:23.516Z,0.51
2024-01-16T01:38:23.648Z,0.51
2024-01-16T01:39:23.689Z,0.52
2024-01-16T01:40:23.730Z,0.52
2024-01-16T01:41:23.833Z,0.51
2024-01-16T01:42:23.857Z,0.52
2024-01-16T01:43:23.917Z,0.53
2024-01-16T01:44:24.001Z,0.51
2024-01-16T01:45:24.049Z,0.51
2024-01-16T01:46:24.093Z,0.51
2024-01-16T01:47:24.231Z,0.51
2024-01-16T01:48:24.362Z,0.52
2024-01-16T01:49:24.361Z,0.52
2024-01-16T01:50:24.398Z,0.50
2024-01-16T01:51:24.430Z,0.51
2024-01-16T01:52:24.481Z,0.51
2024-01-16T01:53:24.628Z,0.51
2024-01-16T01:54:24.600Z,0.50
2024-01-16T01:55:24.686Z,0.51
2024-01-16T01:56:24.807Z,0.51
2024-01-16T01:57:24.831Z,0.52
2024-01-16T01:58:24.885Z,0.51
2024-01-16T01:59:24.993Z,0.52
2024-01-16T02:00:25.016Z,0.50
2024-01-16T02:01:25.095Z,0.51
2024-01-16T02:02:25.198Z,0.52
2024-01-16T02:03:25.235Z,0.51
2024-01-16T02:04:25.306Z,0.51
2024-01-16T02:05:25.497Z,0.52
2024-01-16T02:06:25.469Z,0.52
2024-01-16T02:07:25.501Z,0.51
2024-01-16T02:08:25.583Z,0.52
2024-01-16T02:09:25.622Z,0.51
2024-01-16T02:10:25.718Z,0.51
2024-01-16T02:11:25.816Z,0.52
2024-01-16T02:12:26.136Z,0.51
2024-01-16T02:13:25.909Z,0.51
2024-01-16T02:14:26.093Z,0.52
2024-01-16T02:15:26.021Z,0.52
2024-01-16T02:16:26.055Z,0.51
2024-01-16T02:17:26.144Z,0.51
2024-01-16T02:18:26.179Z,0.51
2024-01-16T02:19:26.313Z,0.51
2024-01-16T02:20:26.334Z,0.51
2024-01-16T02:21:26.386Z,0.52
2024-01-16T02:22:26.423Z,0.52
2024-01-16T02:23:26.526Z,0.52
2024-01-16T02:24:26.554Z,0.52
2024-01-16T02:25:26.639Z,0.51
2024-01-16T02:26:26.805Z,0.52
2024-01-16T02:27:26.759Z,0.53
2024-01-16T02:28:26.810Z,0.52
2024-01-16T02:29:26.888Z,0.52
2024-01-16T02:30:26.933Z,0.51
2024-01-16T02:31:37.058Z,0.51
2024-01-16T02:32:27.043Z,0.51
2024-01-16T02:33:27.117Z,0.51
2024-01-16T02:34:26.982Z,0.52
2024-01-16T02:35:26.994Z,0.51
2024-01-16T02:36:26.963Z,0.52
2024-01-16T02:37:26.960Z,0.52
2024-01-16T02:38:26.976Z,0.52
2024-01-16T02:39:26.952Z,0.52
2024-01-16T02:40:26.943Z,0.51
2024-01-16T02:41:26.971Z,0.51
2024-01-16T02:42:26.960Z,0.51
2024-01-16T02:43:26.971Z,0.50
2024-01-16T02:44:27.050Z,0.52
2024-01-16T02:45:26.967Z,0.53
2024-01-16T02:46:26.955Z,0.52
2024-01-16T02:47:27.024Z,0.50
2024-01-16T02:48:27.074Z,0.51
2024-01-16T02:49:27.283Z,0.51
2024-01-16T02:50:27.004Z,0.50
2024-01-16T02:51:27.062Z,0.52
2024-01-16T02:52:27.032Z,0.53
2024-01-16T02:53:27.190Z,0.50
2024-01-16T02:54:27.199Z,0.50
2024-01-16T02:55:27.275Z,0.50
2024-01-16T02:56:27.351Z,0.51
2024-01-16T02:57:27.398Z,0.50
2024-01-16T02:58:27.454Z,0.52
2024-01-16T02:59:27.551Z,0.51
2024-01-16T03:00:27.576Z,0.52
2024-01-16T03:01:27.656Z,0.52
2024-01-16T03:02:27.766Z,0.51
2024-01-16T03:03:27.901Z,0.51
2024-01-16T03:04:27.836Z,0.52
2024-01-16T03:05:27.987Z,0.53
2024-01-16T03:06:28.070Z,0.51
2024-01-16T03:07:28.047Z,0.51
2024-01-16T03:08:28.133Z,0.53
2024-01-16T03:09:28.159Z,0.52
2024-01-16T03:10:28.283Z,0.51
2024-01-16T03:11:29.627Z,0.50
2024-01-16T03:12:28.347Z,0.51
2024-01-16T03:13:28.414Z,0.51
2024-01-16T03:14:28.501Z,0.51
2024-01-16T03:15:28.534Z,0.52
2024-01-16T03:16:28.616Z,0.51
2024-01-16T03:17:28.724Z,0.51
2024-01-16T03:18:28.961Z,0.51
2024-01-16T03:19:33.931Z,0.52
2024-01-16T03:20:28.770Z,0.51
2024-01-16T03:21:28.759Z,0.51
2024-01-16T03:22:28.753Z,0.52
2024-01-16T03:23:28.813Z,0.51
2024-01-16T03:24:28.774Z,0.51
2024-01-16T03:25:28.766Z,0.51
2024-01-16T03:26:28.796Z,0.50
2024-01-16T03:27:28.840Z,0.51
2024-01-16T03:28:28.858Z,0.52
2024-01-16T03:29:29.046Z,0.51
2024-01-16T03:30:29.148Z,0.51
2024-01-16T03:31:29.158Z,0.52
2024-01-16T03:32:29.117Z,0.51
2024-01-16T03:33:29.181Z,0.51
2024-01-16T03:34:29.249Z,0.51
2024-01-16T03:35:29.183Z,0.51
2024-01-16T03:36:29.232Z,0.51
2024-01-16T03:37:29.272Z,0.51
2024-01-16T03:38:29.329Z,0.52
2024-01-16T03:39:29.388Z,0.52
2024-01-16T03:40:29.400Z,0.50
2024-01-16T03:41:29.452Z,0.52
2024-01-16T03:42:29.471Z,0.51
2024-01-16T03:43:29.530Z,0.51
2024-01-16T03:44:29.565Z,0.51
2024-01-16T03:45:29.596Z,0.52
2024-01-16T03:46:29.629Z,0.51
2024-01-16T03:47:29.748Z,0.51
2024-01-16T03:48:29.816Z,0.51
2024-01-16T03:49:29.810Z,0.51
2024-01-16T03:50:29.814Z,0.52
2024-01-16T03:51:29.814Z,0.50
2024-01-16T03:52:29.830Z,0.51
2024-01-16T03:53:29.917Z,0.51
2024-01-16T03:54:29.884Z,0.52
2024-01-16T03:55:29.938Z,0.51
2024-01-16T03:56:29.995Z,0.52
2024-01-16T03:57:29.989Z,0.51
2024-01-16T03:58:30.010Z,0.52
2024-01-16T03:59:30.059Z,0.52
2024-01-16T04:00:30.120Z,0.52
2024-01-16T04:01:30.105Z,0.52
2024-01-16T04:02:30.261Z,0.51
2024-01-16T04:03:30.200Z,0.50
2024-01-16T04:04:30.180Z,0.50
2024-01-16T04:05:30.279Z,0.52
2024-01-16T04:06:30.395Z,0.51
2024-01-16T04:07:30.272Z,0.51
2024-01-16T04:08:30.332Z,0.51
2024-01-16T04:09:30.309Z,0.52
2024-01-16T04:10:30.332Z,0.50
2024-01-16T04:11:30.393Z,0.50
2024-01-16T04:12:30.374Z,0.52
2024-01-16T04:13:30.420Z,0.51
2024-01-16T04:14:30.481Z,0.51
2024-01-16T04:15:30.436Z,0.53
2024-01-16T04:16:30.445Z,0.52
2024-01-16T04:17:30.512Z,0.51
2024-01-16T04:18:30.593Z,0.51
2024-01-16T04:19:30.581Z,0.51
2024-01-16T04:20:30.529Z,0.52
2024-01-16T04:21:30.551Z,0.51
2024-01-16T04:22:30.588Z,0.51
2024-01-16T04:23:30.654Z,0.51
2024-01-16T04:24:30.629Z,0.50
2024-01-16T04:25:30.670Z,0.52
2024-01-16T04:26:30.691Z,0.50
2024-01-16T04:27:30.688Z,0.51
2024-01-16T04:28:30.696Z,0.52
2024-01-16T04:29:30.724Z,0.52
2024-01-16T04:30:30.820Z,0.51
2024-01-16T04:31:30.750Z,0.51
2024-01-16T04:32:30.857Z,0.51
2024-01-16T04:33:31.006Z,0.52
2024-01-16T04:34:30.900Z,0.51
2024-01-16T04:35:30.858Z,0.51
2024-01-16T04:36:30.853Z,0.52
2024-01-16T04:37:30.953Z,0.52
2024-01-16T04:38:30.883Z,0.52
2024-01-16T04:39:30.910Z,0.53
2024-01-16T04:40:38.192Z,0.50
2024-01-16T04:41:38.203Z,0.50
2024-01-16T04:42:38.173Z,0.50
2024-01-16T04:43:38.175Z,0.50
2024-01-16T04:44:38.190Z,0.50
2024-01-16T04:45:38.216Z,0.51
2024-01-16T04:46:38.194Z,0.52
2024-01-16T04:47:38.248Z,0.51
2024-01-16T04:48:38.273Z,0.51
2024-01-16T04:49:38.211Z,0.51
2024-01-16T04:50:38.239Z,0.51
2024-01-16T04:51:38.200Z,0.51
2024-01-16T04:52:38.192Z,0.51
2024-01-16T04:53:38.271Z,0.51
2024-01-16T04:54:38.202Z,0.50
2024-01-16T04:55:38.213Z,0.52
2024-01-16T04:56:38.212Z,0.51
2024-01-16T04:57:38.199Z,0.51
2024-01-16T04:58:38.206Z,0.51
2024-01-16T04:59:38.234Z,0.52
2024-01-16T05:00:38.222Z,0.52
2024-01-16T05:01:38.196Z,0.52
2024-01-16T05:02:38.236Z,0.52
2024-01-16T05:03:38.236Z,0.51
2024-01-16T05:04:38.214Z,0.51
2024-01-16T05:05:38.263Z,0.51
2024-01-16T05:06:38.293Z,0.51
2024-01-16T05:07:38.205Z,0.51
2024-01-16T05:08:38.257Z,0.52
2024-01-16T05:09:38.208Z,0.51
2024-01-16T05:10:38.206Z,0.53
2024-01-16T05:11:38.286Z,0.52
2024-01-16T05:12:38.218Z,0.51
2024-01-16T05:13:38.202Z,0.52
2024-01-16T05:14:38.255Z,0.51
2024-01-16T05:15:38.248Z,0.52
2024-01-16T05:16:38.263Z,0.50
2024-01-16T05:17:38.421Z,0.51
2024-01-16T05:18:38.413Z,0.52
2024-01-16T05:19:38.362Z,0.51
2024-01-16T05:20:38.389Z,0.51
2024-01-16T05:21:38.391Z,0.51
2024-01-16T05:22:38.398Z,0.51
2024-01-16T05:23:38.521Z,0.51
2024-01-16T05:24:38.425Z,0.51
2024-01-16T05:25:38.431Z,0.51
2024-01-16T05:26:38.499Z,0.51
2024-01-16T05:27:38.477Z,0.51
2024-01-16T05:28:38.503Z,0.51
2024-01-16T05:29:39.780Z,0.52
2024-01-16T05:30:38.732Z,0.51
2024-01-16T05:31:38.716Z,0.52
2024-01-16T05:32:38.832Z,0.51
2024-01-16T05:33:38.830Z,0.51
2024-01-16T05:34:38.880Z,0.52
2024-01-16T05:35:38.921Z,0.52
2024-01-16T05:36:38.831Z,0.51
2024-01-16T05:37:38.975Z,0.50
2024-01-16T05:38:38.941Z,0.52
2024-01-16T05:39:38.855Z,0.51
2024-01-16T05:40:38.876Z,0.51
2024-01-16T05:41:38.984Z,0.50
2024-01-16T05:42:38.936Z,0.51
2024-01-16T05:43:38.935Z,0.51
2024-01-16T05:44:38.979Z,0.52
2024-01-16T05:45:38.965Z,0.52
2024-01-16T05:46:38.965Z,0.50
2024-01-16T05:47:39.083Z,0.52
2024-01-16T05:48:39.104Z,0.52
2024-01-16T05:49:39.138Z,0.51
2024-01-16T05:50:39.218Z,0.52
2024-01-16T05:51:39.114Z,0.52
2024-01-16T05:52:40.918Z,0.52
2024-01-16T05:53:39.181Z,0.51
2024-01-16T05:54:39.181Z,0.52
2024-01-16T05:55:39.207Z,0.51
2024-01-16T05:56:39.268Z,0.51
2024-01-16T05:57:39.237Z,0.51
2024-01-16T05:58:39.259Z,0.51
2024-01-16T05:59:44.492Z,0.51
2024-01-16T06:00:39.299Z,0.51
2024-01-16T06:01:39.285Z,0.51
2024-01-16T06:02:39.346Z,0.51
2024-01-16T06:03:39.330Z,0.51
2024-01-16T06:04:39.474Z,0.51
2024-01-16T06:05:39.472Z,0.50
2024-01-16T06:06:39.453Z,0.51
2024-01-16T06:07:39.436Z,0.52
2024-01-16T06:08:39.492Z,0.51
2024-01-16T06:09:39.508Z,0.51
2024-01-16T06:10:39.484Z,0.51
2024-01-16T06:11:39.555Z,0.51
2024-01-16T06:12:39.532Z,0.51
2024-01-16T06:13:39.529Z,0.51
2024-01-16T06:14:39.581Z,0.51
2024-01-16T06:15:39.565Z,0.51
2024-01-16T06:16:39.556Z,0.51
2024-01-16T06:17:39.676Z,0.51
2024-01-16T06:18:39.695Z,0.51
2024-01-16T06:19:39.684Z,0.51
2024-01-16T06:20:39.652Z,0.51
2024-01-16T06:21:39.652Z,0.51
2024-01-16T06:22:39.658Z,0.52
2024-01-16T06:23:39.725Z,0.51
2024-01-16T06:24:39.713Z,0.52
2024-01-16T06:25:39.745Z,0.52
2024-01-16T06:26:39.741Z,0.51
2024-01-16T06:27:39.737Z,0.50
2024-01-16T06:28:39.738Z,0.52
2024-01-16T06:29:39.806Z,0.52
2024-01-16T06:30:40.017Z,0.53
2024-01-16T06:31:39.815Z,0.54
2024-01-16T06:32:40.052Z,0.55
2024-01-16T06:33:40.001Z,0.52
2024-01-16T06:34:39.902Z,0.53
2024-01-16T06:35:39.974Z,0.52
2024-01-16T06:36:39.932Z,0.53
2024-01-16T06:37:40.006Z,0.52
2024-01-16T06:38:40.036Z,0.52
2024-01-16T06:39:40.019Z,0.52
2024-01-16T06:40:40.042Z,0.52
2024-01-16T06:41:40.087Z,0.53
2024-01-16T06:42:40.075Z,0.52
2024-01-16T06:43:40.150Z,0.55
2024-01-16T06:44:40.141Z,0.54
2024-01-16T06:45:40.150Z,0.55
2024-01-16T06:46:40.139Z,0.54
2024-01-16T06:47:40.257Z,0.57
2024-01-16T06:48:40.395Z,0.57
2024-01-16T06:49:40.280Z,0.58
2024-01-16T06:50:40.290Z,0.59
2024-01-16T06:51:40.199Z,0.59
2024-01-16T06:52:40.208Z,0.60
2024-01-16T06:53:40.294Z,0.61
2024-01-16T06:54:40.238Z,0.63
2024-01-16T06:55:40.253Z,0.65
2024-01-16T06:56:40.286Z,0.63
2024-01-16T06:57:40.252Z,0.65
2024-01-16T06:58:40.245Z,0.66
2024-01-16T06:59:40.285Z,0.67
2024-01-16T07:00:40.296Z,0.70
2024-01-16T07:01:40.268Z,0.72
2024-01-16T07:02:40.285Z,0.73
2024-01-16T07:03:40.350Z,0.74
2024-01-16T07:04:40.291Z,0.73
2024-01-16T07:05:40.334Z,0.73
2024-01-16T07:06:40.343Z,0.73
2024-01-16T07:07:40.343Z,0.76
2024-01-16T07:08:40.384Z,0.76
2024-01-16T07:09:40.334Z,0.75
2024-01-16T07:10:40.322Z,0.76
2024-01-16T07:11:40.386Z,0.75
2024-01-16T07:12:40.339Z,0.77
2024-01-16T07:13:40.333Z,0.76
2024-01-16T07:14:40.491Z,0.76
2024-01-16T07:15:40.353Z,0.78
2024-01-16T07:16:40.374Z,0.78
2024-01-16T07:17:40.471Z,0.78
2024-01-16T07:18:40.790Z,0.79
2024-01-16T07:19:40.451Z,0.78
2024-01-16T07:20:40.484Z,0.79
2024-01-16T07:21:40.420Z,0.77
2024-01-16T07:22:40.429Z,0.78
2024-01-16T07:23:40.503Z,0.78
2024-01-16T07:24:40.453Z,0.78
2024-01-16T07:25:40.480Z,0.77
2024-01-16T07:26:40.509Z,0.77
2024-01-16T07:27:40.561Z,0.77
2024-01-16T07:28:40.506Z,0.78
2024-01-16T07:29:40.595Z,0.78
2024-01-16T07:30:40.603Z,0.74
2024-01-16T07:31:40.556Z,0.76
2024-01-16T07:32:40.666Z,0.78
2024-01-16T07:33:40.869Z,0.76
2024-01-16T07:34:40.636Z,0.75
2024-01-16T07:35:40.650Z,0.75
2024-01-16T07:36:40.655Z,0.76
2024-01-16T07:37:40.696Z,0.77
2024-01-16T07:38:40.714Z,0.76
2024-01-16T07:39:40.759Z,0.76
2024-01-16T07:40:40.755Z,0.77
2024-01-16T07:41:40.804Z,0.76
2024-01-16T07:42:40.765Z,0.75
2024-01-16T07:43:40.805Z,0.76
2024-01-16T07:44:40.826Z,0.75
2024-01-16T07:45:40.848Z,0.74
2024-01-16T07:46:40.820Z,0.76
2024-01-16T07:47:40.926Z,0.74
2024-01-16T07:48:40.947Z,0.75
2024-01-16T07:49:40.983Z,0.74
2024-01-16T07:50:40.960Z,0.74
2024-01-16T07:51:40.994Z,0.74
2024-01-16T07:52:40.936Z,0.75
2024-01-16T07:53:41.015Z,0.75
2024-01-16T07:54:40.991Z,0.74
2024-01-16T07:55:40.988Z,0.74
2024-01-16T07:56:41.036Z,0.75
2024-01-16T07:57:41.001Z,0.73
2024-01-16T07:58:41.005Z,0.75
2024-01-16T07:59:41.075Z,0.73
2024-01-16T08:00:41.109Z,0.74
2024-01-16T08:01:41.131Z,0.72
2024-01-16T08:02:41.094Z,0.71
2024-01-16T08:03:41.091Z,0.73
2024-01-16T08:04:41.069Z,0.73
2024-01-16T08:05:41.227Z,0.74
2024-01-16T08:06:41.169Z,0.72
2024-01-16T08:07:41.153Z,0.72
2024-01-16T08:08:41.131Z,0.73
2024-01-16T08:09:46.222Z,0.73
2024-01-16T08:10:41.125Z,0.73
2024-01-16T08:11:41.149Z,0.73
2024-01-16T08:12:41.141Z,0.72
2024-01-16T08:13:41.149Z,0.72
2024-01-16T08:14:41.165Z,0.73
2024-01-16T08:15:41.171Z,0.72
2024-01-16T08:16:41.172Z,0.71
2024-01-16T08:17:41.293Z,0.72
2024-01-16T08:18:41.377Z,0.70
2024-01-16T08:19:41.290Z,0.71
2024-01-16T08:20:41.290Z,0.71
2024-01-16T08:21:41.258Z,0.70
2024-01-16T08:22:41.278Z,0.71
2024-01-16T08:23:41.313Z,0.69
2024-01-16T08:24:41.312Z,0.70
2024-01-16T08:25:41.372Z,0.70
2024-01-16T08:26:41.368Z,0.69
2024-01-16T08:27:41.386Z,0.69
2024-01-16T08:28:41.377Z,0.69
2024-01-16T08:29:41.437Z,0.70
2024-01-16T08:30:41.445Z,0.69
2024-01-16T08:31:41.436Z,0.68
2024-01-16T08:32:41.486Z,0.69
2024-01-16T08:33:46.462Z,0.69
2024-01-16T08:34:42.548Z,0.69
2024-01-16T08:35:41.560Z,0.68
2024-01-16T08:36:41.467Z,0.68
2024-01-16T08:37:41.485Z,0.69
2024-01-16T08:38:41.516Z,0.68
2024-01-16T08:39:41.486Z,0.67
2024-01-16T08:40:41.602Z,0.68
2024-01-16T08:41:41.539Z,0.66
2024-01-16T08:42:41.484Z,0.68
2024-01-16T08:43:41.503Z,0.67
2024-01-16T08:44:41.519Z,0.67
2024-01-16T08:45:41.486Z,0.68
2024-01-16T08:46:41.501Z,0.65
2024-01-16T08:47:41.577Z,0.67
2024-01-16T08:48:41.583Z,0.66
2024-01-16T08:49:41.566Z,0.66
2024-01-16T08:50:41.524Z,0.66
2024-01-16T08:51:41.529Z,0.67
2024-01-16T08:52:41.498Z,0.67
2024-01-16T08:53:41.537Z,0.66
2024-01-16T08:54:41.491Z,0.67
2024-01-16T08:55:41.508Z,0.72
2024-01-16T08:56:41.513Z,0.73
2024-01-16T08:57:41.502Z,0.76
2024-01-16T08:58:41.799Z,0.79
2024-01-16T08:59:41.639Z,0.83
2024-01-16T09:00:41.686Z,0.85
2024-01-16T09:01:41.697Z,0.89
2024-01-16T09:02:41.745Z,0.90
2024-01-16T09:03:41.753Z,0.94
2024-01-16T09:04:41.806Z,0.99
2024-01-16T09:05:41.894Z,1.04
2024-01-16T09:06:41.951Z,1.09
2024-01-16T09:07:41.770Z,1.12
2024-01-16T09:08:41.843Z,1.18
2024-01-16T09:09:41.796Z,1.22
2024-01-16T09:10:41.851Z,1.26
2024-01-16T09:11:41.949Z,1.34
2024-01-16T09:12:41.973Z,1.38
2024-01-16T09:13:49.233Z,0.50
2024-01-16T09:14:49.336Z,0.50
2024-01-16T09:15:49.264Z,0.50
2024-01-16T09:16:49.328Z,0.50
2024-01-16T09:17:49.386Z,0.50
2024-01-16T09:18:49.347Z,0.52
2024-01-16T09:19:49.224Z,0.52
2024-01-16T09:20:49.248Z,0.54
2024-01-16T09:21:49.249Z,0.55
2024-01-16T09:22:49.253Z,0.57
2024-01-16T09:23:49.262Z,0.60
2024-01-16T09:24:49.238Z,0.60
2024-01-16T09:25:49.264Z,0.61
2024-01-16T09:26:49.355Z,0.64
2024-01-16T09:27:49.239Z,0.65
2024-01-16T09:28:49.252Z,0.69
2024-01-16T09:29:49.279Z,0.78
2024-01-16T09:30:49.409Z,0.87
2024-01-16T09:31:49.307Z,0.86
2024-01-16T09:32:49.372Z,0.85
2024-01-16T09:33:49.342Z,0.86
2024-01-16T09:34:49.438Z,0.89
2024-01-16T09:35:49.320Z,0.89
2024-01-16T09:36:49.232Z,0.90
2024-01-16T09:37:49.240Z,0.93
2024-01-16T09:38:49.384Z,0.93
2024-01-16T09:39:49.227Z,0.99
2024-01-16T09:40:49.264Z,0.99
2024-01-16T09:41:49.300Z,1.06
2024-01-16T09:42:49.239Z,1.02
2024-01-16T09:43:49.230Z,1.04
2024-01-16T09:44:49.304Z,1.07
2024-01-16T09:45:49.235Z,1.06
2024-01-16T09:46:49.297Z,1.09
2024-01-16T09:47:50.960Z,1.13
2024-01-16T09:48:49.358Z,1.14
2024-01-16T09:49:49.291Z,1.17
2024-01-16T09:50:49.367Z,1.21
2024-01-16T09:51:49.259Z,1.24
2024-01-16T09:52:49.260Z,1.23
2024-01-16T09:53:49.328Z,1.25
2024-01-16T09:54:49.272Z,1.10
2024-01-16T09:55:49.246Z,1.01
2024-01-16T09:56:49.362Z,1.00
2024-01-16T09:57:49.286Z,0.94
2024-01-16T09:58:49.312Z,0.85
2024-01-16T09:59:49.507Z,0.71
2024-01-16T10:00:49.387Z,0.59
2024-01-16T10:01:49.431Z,0.50
2024-01-16T10:02:49.475Z,0.50
2024-01-16T10:03:51.934Z,0.48
2024-01-16T10:04:49.513Z,0.48
2024-01-16T10:05:49.614Z,0.51
2024-01-16T10:06:49.625Z,0.50
2024-01-16T10:07:49.464Z,0.50
2024-01-16T10:08:49.568Z,0.52
2024-01-16T10:09:49.468Z,0.49
2024-01-16T10:10:51.053Z,0.47
2024-01-16T10:11:49.479Z,0.44
2024-01-16T10:12:49.463Z,0.38
2024-01-16T10:13:49.469Z,0.32
2024-01-16T10:14:49.595Z,0.29
2024-01-16T10:15:49.462Z,0.26
2024-01-16T10:16:49.457Z,0.30
2024-01-16T10:17:49.567Z,0.35
2024-01-16T10:18:49.558Z,0.39
2024-01-16T10:19:49.683Z,0.45
2024-01-16T10:20:49.568Z,0.51
2024-01-16T10:21:49.460Z,0.50
2024-01-16T10:22:49.484Z,0.52
2024-01-16T10:23:49.534Z,0.53
2024-01-16T10:24:49.543Z,0.53
2024-01-16T10:25:49.558Z,0.55
2024-01-16T10:26:49.626Z,0.52
2024-01-16T10:27:49.666Z,0.50
2024-01-16T10:28:49.700Z,0.51
2024-01-16T10:29:50.791Z,0.50
2024-01-16T10:30:49.825Z,0.50
2024-01-16T10:31:49.839Z,0.50
2024-01-16T10:32:49.949Z,0.51
2024-01-16T10:33:50.016Z,0.50
2024-01-16T10:34:50.013Z,0.50
2024-01-16T10:35:49.993Z,0.51
2024-01-16T10:36:50.050Z,0.51
2024-01-16T10:37:50.064Z,0.55
2024-01-16T10:38:50.137Z,0.60
2024-01-16T10:39:50.142Z,0.64
2024-01-16T10:40:50.199Z,0.71
2024-01-16T10:41:50.337Z,0.75
2024-01-16T10:42:50.335Z,0.71
2024-01-16T10:43:50.385Z,0.72
2024-01-16T10:44:50.527Z,0.64
2024-01-16T10:45:50.516Z,0.60
2024-01-16T10:46:50.574Z,0.57
2024-01-16T10:47:50.769Z,0.54
2024-01-16T10:48:50.685Z,0.53
2024-01-16T10:49:50.713Z,0.57
2024-01-16T10:50:50.767Z,0.57
2024-01-16T10:51:50.801Z,0.56
2024-01-16T10:52:50.804Z,0.53
2024-01-16T10:53:50.902Z,0.64
2024-01-16T10:54:50.863Z,1.71
2024-01-16T10:55:50.937Z,2.01
2024-01-16T10:56:51.038Z,1.92
2024-01-16T10:57:51.017Z,2.08
2024-01-16T10:58:51.064Z,1.91
2024-01-16T10:59:51.095Z,1.79
2024-01-16T11:00:51.131Z,2.03
2024-01-16T11:01:51.159Z,2.04
2024-01-16T11:02:51.350Z,1.99
2024-01-16T11:03:51.355Z,1.92
2024-01-16T11:04:51.276Z,1.76
2024-01-16T11:05:51.417Z,1.71
2024-01-16T11:06:51.448Z,1.71
2024-01-16T11:07:51.409Z,1.75
2024-01-16T11:08:51.591Z,1.85
2024-01-16T11:09:51.456Z,1.91
2024-01-16T11:10:51.465Z,1.95
2024-01-16T11:11:51.578Z,2.07
2024-01-16T11:12:51.483Z,2.12
2024-01-16T11:13:51.536Z,2.24
2024-01-16T11:14:51.664Z,2.34
2024-01-16T11:15:51.683Z,2.44
2024-01-16T11:16:51.728Z,2.60
2024-01-16T11:17:51.827Z,2.67
2024-01-16T11:18:51.844Z,2.80
2024-01-16T11:21:04.180Z,3.08
2024-01-16T11:21:52.943Z,3.08
2024-01-16T11:22:51.910Z,3.12
2024-01-16T11:23:52.008Z,3.22
2024-01-16T11:24:51.883Z,3.41
2024-01-16T11:25:51.892Z,3.75
2024-01-16T11:26:51.962Z,3.89
2024-01-16T11:27:52.047Z,3.98
2024-01-16T11:28:51.905Z,4.12
2024-01-16T11:29:51.888Z,4.14
2024-01-16T11:30:51.927Z,4.20
2024-01-16T11:31:54.727Z,4.30
2024-01-16T11:32:52.956Z,4.31
2024-01-16T11:33:51.996Z,4.36
2024-01-16T11:34:51.925Z,4.45
2024-01-16T11:35:51.903Z,4.70
2024-01-16T11:36:51.897Z,5.04
2024-01-16T11:37:51.886Z,5.12
2024-01-16T11:38:51.945Z,5.17
2024-01-16T11:39:51.915Z,5.27
2024-01-16T11:40:51.909Z,5.15
2024-01-16T11:41:51.979Z,5.72
2024-01-16T11:42:52.035Z,9.11
2024-01-16T11:43:52.045Z,8.26
2024-01-16T11:44:52.264Z,7.73
2024-01-16T11:45:52.169Z,7.13
2024-01-16T11:46:52.222Z,6.86
2024-01-16T11:47:52.363Z,6.94
2024-01-16T11:48:52.529Z,6.87
2024-01-16T11:49:52.422Z,6.64
2024-01-16T11:50:52.487Z,6.78
2024-01-16T11:51:52.505Z,6.79
2024-01-16T11:52:52.571Z,6.73
2024-01-16T11:53:52.631Z,6.67
2024-01-16T11:54:52.660Z,6.69
2024-01-16T11:55:52.698Z,6.65
2024-01-16T11:56:52.769Z,6.87
2024-01-16T11:57:52.793Z,6.83
2024-01-16T11:58:52.812Z,6.92
2024-01-16T11:59:52.920Z,6.92
2024-01-16T12:00:52.883Z,7.08
2024-01-16T12:01:52.897Z,7.06
2024-01-16T12:02:52.977Z,7.22
2024-01-16T12:03:52.957Z,7.22
2024-01-16T12:04:52.953Z,7.49
2024-01-16T12:05:53.047Z,7.47
2024-01-16T12:06:53.140Z,7.43
2024-01-16T12:07:52.999Z,7.42
2024-01-16T12:08:53.096Z,7.53
2024-01-16T12:09:53.039Z,7.65
2024-01-16T12:10:52.998Z,7.52
2024-01-16T12:11:53.035Z,7.63
2024-01-16T12:12:53.013Z,7.51
2024-01-16T12:13:52.994Z,7.90
2024-01-16T12:14:53.212Z,7.60
2024-01-16T12:15:53.033Z,7.61
2024-01-16T12:16:53.068Z,7.47
2024-01-16T12:17:53.234Z,7.60
2024-01-16T12:18:53.259Z,7.69
2024-01-16T12:19:53.288Z,7.74
2024-01-16T12:20:53.294Z,7.59
2024-01-16T12:21:53.315Z,7.72
2024-01-16T12:22:53.321Z,7.79
2024-01-16T12:24:01.005Z,7.65
2024-01-16T12:24:54.389Z,7.66
2024-01-16T12:26:01.956Z,7.71
2024-01-16T12:26:54.491Z,7.66
2024-01-16T12:27:53.386Z,7.71
2024-01-16T12:28:55.550Z,7.82
2024-01-16T12:29:53.413Z,7.67
2024-01-16T12:30:53.478Z,7.69
2024-01-16T12:31:53.419Z,7.78
2024-01-16T12:33:02.323Z,8.00
2024-01-16T12:34:01.592Z,7.67
2024-01-16T12:34:54.482Z,7.67
2024-01-16T12:35:53.461Z,7.77
2024-01-16T12:36:53.415Z,7.84
2024-01-16T12:37:53.392Z,7.99
2024-01-16T12:38:53.487Z,8.30
2024-01-16T12:39:53.442Z,8.03
2024-01-16T12:40:53.425Z,8.24
2024-01-16T12:41:53.476Z,8.02
2024-01-16T12:42:53.403Z,8.19
2024-01-16T12:44:00.890Z,7.83
2024-01-16T12:44:54.446Z,7.84
2024-01-16T12:45:53.420Z,7.84
2024-01-16T12:46:53.455Z,7.93
2024-01-16T12:47:54.811Z,7.93
2024-01-16T12:49:00.599Z,8.15
2024-01-16T12:49:54.495Z,7.84
2024-01-16T12:50:53.449Z,7.85
2024-01-16T12:51:53.435Z,7.91
2024-01-16T12:52:53.453Z,7.95
2024-01-16T12:53:53.483Z,7.91
2024-01-16T12:54:53.434Z,7.96
2024-01-16T12:55:53.442Z,7.77
2024-01-16T12:56:53.477Z,7.68
2024-01-16T12:57:53.436Z,7.44
2024-01-16T12:58:53.443Z,7.63
2024-01-16T12:59:53.454Z,7.32
2024-01-16T13:00:53.556Z,7.30
2024-01-16T13:01:53.435Z,7.40
2024-01-16T13:02:53.518Z,7.23
2024-01-16T13:03:53.432Z,7.20
2024-01-16T13:04:53.469Z,7.04
2024-01-16T13:05:53.547Z,6.96
2024-01-16T13:06:53.553Z,6.78
2024-01-16T13:07:53.452Z,6.84
2024-01-16T13:08:53.480Z,6.74
2024-01-16T13:09:53.469Z,6.59
2024-01-16T13:10:53.465Z,6.51
2024-01-16T13:11:53.928Z,6.54
2024-01-16T13:12:53.502Z,6.37
2024-01-16T13:13:53.607Z,6.35
2024-01-16T13:14:53.585Z,6.42
2024-01-16T13:15:53.536Z,6.11
2024-01-16T13:16:53.557Z,6.13
2024-01-16T13:17:53.635Z,5.97
2024-01-16T13:18:53.690Z,5.96
2024-01-16T13:19:53.646Z,5.97